sensor_id;sensor_type;location;lat;lon;timestamp;pressure;altitude;pressure_sealevel;temperature;humidity
69796;BME280;57073;45.650;9.612;2022-07-15T00:00:56;99133.44;;;27.91;42.17
69796;BME280;57073;45.650;9.612;2022-07-15T00:02:56;99134.84;;;27.97;41.90
69796;BME280;57073;45.650;9.612;2022-07-15T00:04:56;99141.09;;;28.06;41.51
69796;BME280;57073;45.650;9.612;2022-07-15T00:06:57;99130.53;;;28.08;40.83
69796;BME280;57073;45.650;9.612;2022-07-15T00:08:57;99129.38;;;28.09;40.40
69796;BME280;57073;45.650;9.612;2022-07-15T00:10:58;99122.13;;;28.05;40.16
69796;BME280;57073;45.650;9.612;2022-07-15T00:13:00;99122.94;;;28.05;39.40
69796;BME280;57073;45.650;9.612;2022-07-15T00:15:01;99123.34;;;27.95;39.47
69796;BME280;57073;45.650;9.612;2022-07-15T00:17:02;99119.66;;;27.91;39.27
69796;BME280;57073;45.650;9.612;2022-07-15T00:19:03;99122.06;;;27.92;40.04
69796;BME280;57073;45.650;9.612;2022-07-15T00:21:03;99115.75;;;27.92;40.63
69796;BME280;57073;45.650;9.612;2022-07-15T00:23:06;99118.53;;;27.92;40.03
69796;BME280;57073;45.650;9.612;2022-07-15T00:25:07;99114.31;;;27.86;41.11
69796;BME280;57073;45.650;9.612;2022-07-15T00:27:07;99121.44;;;27.87;41.04
69796;BME280;57073;45.650;9.612;2022-07-15T00:29:08;99117.84;;;27.86;41.46
69796;BME280;57073;45.650;9.612;2022-07-15T00:31:08;99111.88;;;27.84;41.94
69796;BME280;57073;45.650;9.612;2022-07-15T00:33:09;99120.22;;;27.76;42.57
69796;BME280;57073;45.650;9.612;2022-07-15T00:35:09;99111.00;;;27.71;42.98
69796;BME280;57073;45.650;9.612;2022-07-15T00:37:10;99112.44;;;27.78;43.06
69796;BME280;57073;45.650;9.612;2022-07-15T00:39:11;99105.69;;;27.66;42.52
69796;BME280;57073;45.650;9.612;2022-07-15T00:41:11;99101.81;;;27.67;42.38
69796;BME280;57073;45.650;9.612;2022-07-15T00:43:13;99105.97;;;27.73;42.71
69796;BME280;57073;45.650;9.612;2022-07-15T00:45:18;99102.19;;;27.57;42.75
69796;BME280;57073;45.650;9.612;2022-07-15T00:47:19;99109.66;;;27.57;42.82
69796;BME280;57073;45.650;9.612;2022-07-15T00:49:19;99100.78;;;27.51;43.74
69796;BME280;57073;45.650;9.612;2022-07-15T00:51:20;99106.13;;;27.56;43.95
69796;BME280;57073;45.650;9.612;2022-07-15T00:53:20;99108.41;;;27.54;44.34
69796;BME280;57073;45.650;9.612;2022-07-15T00:55:22;99102.75;;;27.50;43.72
69796;BME280;57073;45.650;9.612;2022-07-15T00:57:23;99104.91;;;27.45;43.52
69796;BME280;57073;45.650;9.612;2022-07-15T00:59:29;99100.72;;;27.39;44.36
69796;BME280;57073;45.650;9.612;2022-07-15T01:01:33;99105.94;;;27.31;44.45
69796;BME280;57073;45.650;9.612;2022-07-15T01:03:35;99105.63;;;27.24;43.54
69796;BME280;57073;45.650;9.612;2022-07-15T01:05:36;99100.91;;;27.25;43.54
69796;BME280;57073;45.650;9.612;2022-07-15T01:07:37;99102.53;;;27.26;43.83
69796;BME280;57073;45.650;9.612;2022-07-15T01:09:38;99107.56;;;27.24;44.41
69796;BME280;57073;45.650;9.612;2022-07-15T01:11:39;99098.69;;;27.27;44.64
69796;BME280;57073;45.650;9.612;2022-07-15T01:13:40;99106.41;;;27.25;43.93
69796;BME280;57073;45.650;9.612;2022-07-15T01:15:40;99092.03;;;27.28;44.21
69796;BME280;57073;45.650;9.612;2022-07-15T01:17:41;99098.16;;;27.25;44.13
69796;BME280;57073;45.650;9.612;2022-07-15T01:19:44;99095.75;;;27.23;44.85
69796;BME280;57073;45.650;9.612;2022-07-15T01:21:44;99097.22;;;27.21;44.23
69796;BME280;57073;45.650;9.612;2022-07-15T01:23:45;99095.63;;;27.20;43.67
69796;BME280;57073;45.650;9.612;2022-07-15T01:25:45;99091.09;;;27.15;43.79
69796;BME280;57073;45.650;9.612;2022-07-15T01:27:46;99096.00;;;27.09;44.24
69796;BME280;57073;45.650;9.612;2022-07-15T01:29:46;99090.53;;;27.01;44.09
69796;BME280;57073;45.650;9.612;2022-07-15T01:31:47;99094.44;;;27.00;44.23
69796;BME280;57073;45.650;9.612;2022-07-15T01:33:47;99080.66;;;27.00;44.11
69796;BME280;57073;45.650;9.612;2022-07-15T01:35:47;99075.81;;;26.96;44.10
69796;BME280;57073;45.650;9.612;2022-07-15T01:37:48;99083.06;;;27.01;44.63
69796;BME280;57073;45.650;9.612;2022-07-15T01:39:48;99084.34;;;27.04;45.05
69796;BME280;57073;45.650;9.612;2022-07-15T01:41:49;99078.38;;;27.02;43.77
69796;BME280;57073;45.650;9.612;2022-07-15T01:43:49;99079.97;;;27.03;44.29
69796;BME280;57073;45.650;9.612;2022-07-15T01:45:50;99073.19;;;27.00;44.96
69796;BME280;57073;45.650;9.612;2022-07-15T01:47:50;99070.63;;;26.95;44.53
69796;BME280;57073;45.650;9.612;2022-07-15T01:49:52;99066.59;;;26.92;44.99
69796;BME280;57073;45.650;9.612;2022-07-15T01:51:53;99068.66;;;26.95;45.20
69796;BME280;57073;45.650;9.612;2022-07-15T01:53:55;99061.25;;;26.96;45.03
69796;BME280;57073;45.650;9.612;2022-07-15T01:55:55;99062.97;;;27.01;44.79
69796;BME280;57073;45.650;9.612;2022-07-15T01:57:55;99069.16;;;26.97;44.31
69796;BME280;57073;45.650;9.612;2022-07-15T01:59:57;99060.13;;;26.88;44.57
69796;BME280;57073;45.650;9.612;2022-07-15T02:01:58;99064.03;;;26.87;45.06
69796;BME280;57073;45.650;9.612;2022-07-15T02:03:59;99052.72;;;26.80;45.07
69796;BME280;57073;45.650;9.612;2022-07-15T02:05:59;99050.47;;;26.73;44.58
69796;BME280;57073;45.650;9.612;2022-07-15T02:08:00;99052.91;;;26.75;44.92
69796;BME280;57073;45.650;9.612;2022-07-15T02:10:01;99050.16;;;26.75;45.16
69796;BME280;57073;45.650;9.612;2022-07-15T02:12:01;99044.66;;;26.75;44.28
69796;BME280;57073;45.650;9.612;2022-07-15T02:14:02;99050.34;;;26.70;44.92
69796;BME280;57073;45.650;9.612;2022-07-15T02:16:03;99039.50;;;26.65;45.75
69796;BME280;57073;45.650;9.612;2022-07-15T02:18:04;99045.00;;;26.65;46.05
69796;BME280;57073;45.650;9.612;2022-07-15T02:20:05;99043.09;;;26.65;46.22
69796;BME280;57073;45.650;9.612;2022-07-15T02:22:06;99035.63;;;26.66;45.36
69796;BME280;57073;45.650;9.612;2022-07-15T02:24:06;99043.09;;;26.65;45.12
69796;BME280;57073;45.650;9.612;2022-07-15T02:26:07;99038.72;;;26.64;45.08
69796;BME280;57073;45.650;9.612;2022-07-15T02:28:07;99035.47;;;26.62;45.72
69796;BME280;57073;45.650;9.612;2022-07-15T02:30:08;99038.56;;;26.61;45.79
69796;BME280;57073;45.650;9.612;2022-07-15T02:32:08;99033.84;;;26.61;45.05
69796;BME280;57073;45.650;9.612;2022-07-15T02:34:09;99036.78;;;26.56;45.89
69796;BME280;57073;45.650;9.612;2022-07-15T02:36:10;99037.44;;;26.53;45.57
69796;BME280;57073;45.650;9.612;2022-07-15T02:38:11;99030.31;;;26.52;45.79
69796;BME280;57073;45.650;9.612;2022-07-15T02:40:11;99044.06;;;26.52;46.11
69796;BME280;57073;45.650;9.612;2022-07-15T02:42:12;99035.50;;;26.45;45.49
69796;BME280;57073;45.650;9.612;2022-07-15T02:44:12;99035.84;;;26.43;45.74
69796;BME280;57073;45.650;9.612;2022-07-15T02:46:14;99038.00;;;26.29;46.24
69796;BME280;57073;45.650;9.612;2022-07-15T02:48:14;99031.47;;;26.42;46.33
69796;BME280;57073;45.650;9.612;2022-07-15T02:50:16;99025.84;;;26.38;45.62
69796;BME280;57073;45.650;9.612;2022-07-15T02:52:17;99029.09;;;26.32;46.70
69796;BME280;57073;45.650;9.612;2022-07-15T02:54:17;99028.75;;;26.33;46.15
69796;BME280;57073;45.650;9.612;2022-07-15T02:56:18;99034.59;;;26.32;46.22
69796;BME280;57073;45.650;9.612;2022-07-15T02:58:18;99034.75;;;26.27;46.35
69796;BME280;57073;45.650;9.612;2022-07-15T03:00:19;99036.06;;;26.29;45.96
69796;BME280;57073;45.650;9.612;2022-07-15T03:02:20;99029.47;;;26.22;45.87
69796;BME280;57073;45.650;9.612;2022-07-15T03:04:20;99035.59;;;26.18;46.02
69796;BME280;57073;45.650;9.612;2022-07-15T03:06:20;99031.06;;;26.14;46.27
69796;BME280;57073;45.650;9.612;2022-07-15T03:08:21;99026.41;;;26.06;46.31
69796;BME280;57073;45.650;9.612;2022-07-15T03:10:21;99032.06;;;26.09;45.82
69796;BME280;57073;45.650;9.612;2022-07-15T03:12:21;99022.19;;;25.99;45.87
69796;BME280;57073;45.650;9.612;2022-07-15T03:14:22;99024.78;;;25.96;46.82
69796;BME280;57073;45.650;9.612;2022-07-15T03:16:22;99028.69;;;25.95;46.45
69796;BME280;57073;45.650;9.612;2022-07-15T03:18:23;99025.16;;;25.94;47.33
69796;BME280;57073;45.650;9.612;2022-07-15T03:20:23;99020.28;;;26.00;46.94
69796;BME280;57073;45.650;9.612;2022-07-15T03:22:24;99029.81;;;26.02;46.06
69796;BME280;57073;45.650;9.612;2022-07-15T03:24:25;99024.31;;;25.94;47.28
69796;BME280;57073;45.650;9.612;2022-07-15T03:26:25;99023.66;;;25.88;45.67
69796;BME280;57073;45.650;9.612;2022-07-15T03:28:26;99019.31;;;25.87;46.52
69796;BME280;57073;45.650;9.612;2022-07-15T03:30:26;99022.84;;;25.79;46.61
69796;BME280;57073;45.650;9.612;2022-07-15T03:32:27;99024.66;;;25.75;46.65
69796;BME280;57073;45.650;9.612;2022-07-15T03:34:27;99029.16;;;25.79;46.90
69796;BME280;57073;45.650;9.612;2022-07-15T03:36:28;99020.59;;;25.72;47.39
69796;BME280;57073;45.650;9.612;2022-07-15T03:38:28;99016.41;;;25.75;46.95
69796;BME280;57073;45.650;9.612;2022-07-15T03:40:28;99011.06;;;25.78;46.79
69796;BME280;57073;45.650;9.612;2022-07-15T03:42:29;99019.31;;;25.78;46.14
69796;BME280;57073;45.650;9.612;2022-07-15T03:44:29;99012.34;;;25.72;46.74
69796;BME280;57073;45.650;9.612;2022-07-15T03:46:30;99014.63;;;25.70;46.88
69796;BME280;57073;45.650;9.612;2022-07-15T03:48:30;99018.69;;;25.64;47.14
69796;BME280;57073;45.650;9.612;2022-07-15T03:50:31;99015.75;;;25.60;47.64
69796;BME280;57073;45.650;9.612;2022-07-15T03:52:31;99014.28;;;25.54;46.90
69796;BME280;57073;45.650;9.612;2022-07-15T03:54:32;99011.91;;;25.53;46.93
69796;BME280;57073;45.650;9.612;2022-07-15T03:56:32;99020.63;;;25.55;47.40
69796;BME280;57073;45.650;9.612;2022-07-15T03:58:33;99011.91;;;25.53;47.21
69796;BME280;57073;45.650;9.612;2022-07-15T04:00:34;99018.66;;;25.55;47.23
69796;BME280;57073;45.650;9.612;2022-07-15T04:02:34;99014.66;;;25.53;47.04
69796;BME280;57073;45.650;9.612;2022-07-15T04:04:34;99019.63;;;25.59;47.09
69796;BME280;57073;45.650;9.612;2022-07-15T04:06:35;99023.38;;;25.63;47.36
69796;BME280;57073;45.650;9.612;2022-07-15T04:08:35;99019.31;;;25.70;46.84
69796;BME280;57073;45.650;9.612;2022-07-15T04:10:36;99022.22;;;25.73;47.38
69796;BME280;57073;45.650;9.612;2022-07-15T04:12:36;99016.72;;;25.91;46.42
69796;BME280;57073;45.650;9.612;2022-07-15T04:14:37;99017.69;;;26.04;45.77
69796;BME280;57073;45.650;9.612;2022-07-15T04:16:37;99016.66;;;26.26;45.93
69796;BME280;57073;45.650;9.612;2022-07-15T04:18:38;99018.69;;;26.46;46.06
69796;BME280;57073;45.650;9.612;2022-07-15T04:20:38;99015.22;;;26.67;45.29
69796;BME280;57073;45.650;9.612;2022-07-15T04:22:40;99017.88;;;26.84;45.17
69796;BME280;57073;45.650;9.612;2022-07-15T04:24:40;99013.75;;;26.99;44.23
69796;BME280;57073;45.650;9.612;2022-07-15T04:26:40;99009.25;;;27.15;44.38
69796;BME280;57073;45.650;9.612;2022-07-15T04:28:41;99013.56;;;27.25;43.50
69796;BME280;57073;45.650;9.612;2022-07-15T04:30:42;99014.88;;;27.49;43.68
69796;BME280;57073;45.650;9.612;2022-07-15T04:32:42;99016.94;;;27.73;42.50
69796;BME280;57073;45.650;9.612;2022-07-15T04:34:42;99014.66;;;27.96;42.73
69796;BME280;57073;45.650;9.612;2022-07-15T04:36:43;99009.28;;;28.12;41.86
69796;BME280;57073;45.650;9.612;2022-07-15T04:38:43;99015.53;;;28.46;41.72
69796;BME280;57073;45.650;9.612;2022-07-15T04:40:44;99013.50;;;28.67;41.49
69796;BME280;57073;45.650;9.612;2022-07-15T04:42:44;99016.28;;;28.92;41.02
69796;BME280;57073;45.650;9.612;2022-07-15T04:44:45;99012.09;;;29.11;40.68
69796;BME280;57073;45.650;9.612;2022-07-15T04:46:45;99020.75;;;29.21;39.93
69796;BME280;57073;45.650;9.612;2022-07-15T04:48:45;99018.31;;;29.32;39.45
69796;BME280;57073;45.650;9.612;2022-07-15T04:51:04;99018.22;;;29.57;39.36
69796;BME280;57073;45.650;9.612;2022-07-15T04:53:05;99009.97;;;29.73;38.91
69796;BME280;57073;45.650;9.612;2022-07-15T04:55:05;99009.41;;;29.79;38.79
69796;BME280;57073;45.650;9.612;2022-07-15T04:57:06;99018.81;;;29.91;38.93
69796;BME280;57073;45.650;9.612;2022-07-15T04:59:06;99015.91;;;30.15;37.87
69796;BME280;57073;45.650;9.612;2022-07-15T05:01:07;99013.25;;;30.19;38.16
69796;BME280;57073;45.650;9.612;2022-07-15T05:03:07;99010.13;;;30.36;37.71
69796;BME280;57073;45.650;9.612;2022-07-15T05:05:08;99016.31;;;30.46;37.01
69796;BME280;57073;45.650;9.612;2022-07-15T05:07:08;99017.56;;;30.64;37.02
69796;BME280;57073;45.650;9.612;2022-07-15T05:09:09;99011.38;;;30.87;36.88
69796;BME280;57073;45.650;9.612;2022-07-15T05:11:09;99018.53;;;30.88;36.50
69796;BME280;57073;45.650;9.612;2022-07-15T05:13:09;99016.09;;;31.02;35.98
69796;BME280;57073;45.650;9.612;2022-07-15T05:15:10;99009.13;;;31.08;36.10
69796;BME280;57073;45.650;9.612;2022-07-15T05:17:10;99014.41;;;31.33;35.97
69796;BME280;57073;45.650;9.612;2022-07-15T05:19:11;99016.59;;;31.43;35.42
69796;BME280;57073;45.650;9.612;2022-07-15T05:21:11;99021.97;;;31.52;35.05
69796;BME280;57073;45.650;9.612;2022-07-15T05:23:11;99021.34;;;31.43;34.69
69796;BME280;57073;45.650;9.612;2022-07-15T05:25:12;99017.72;;;31.58;34.34
69796;BME280;57073;45.650;9.612;2022-07-15T05:27:12;99016.19;;;31.61;34.87
69796;BME280;57073;45.650;9.612;2022-07-15T05:29:13;99025.66;;;31.60;34.10
69796;BME280;57073;45.650;9.612;2022-07-15T05:31:13;99019.53;;;31.50;34.34
69796;BME280;57073;45.650;9.612;2022-07-15T05:33:17;99017.19;;;31.33;34.22
69796;BME280;57073;45.650;9.612;2022-07-15T05:35:17;99032.91;;;31.29;34.22
69796;BME280;57073;45.650;9.612;2022-07-15T05:37:18;99021.09;;;31.48;34.20
69796;BME280;57073;45.650;9.612;2022-07-15T05:39:18;99029.56;;;31.55;33.85
69796;BME280;57073;45.650;9.612;2022-07-15T05:41:19;99034.88;;;31.64;33.70
69796;BME280;57073;45.650;9.612;2022-07-15T05:43:19;99028.22;;;31.68;34.40
69796;BME280;57073;45.650;9.612;2022-07-15T05:45:20;99024.22;;;31.66;34.19
69796;BME280;57073;45.650;9.612;2022-07-15T05:47:20;99033.34;;;31.86;33.83
69796;BME280;57073;45.650;9.612;2022-07-15T05:49:21;99029.91;;;31.73;34.24
69796;BME280;57073;45.650;9.612;2022-07-15T05:51:22;99038.38;;;31.61;34.13
69796;BME280;57073;45.650;9.612;2022-07-15T05:53:22;99039.47;;;31.76;33.61
69796;BME280;57073;45.650;9.612;2022-07-15T05:55:23;99040.97;;;31.92;34.33
69796;BME280;57073;45.650;9.612;2022-07-15T05:57:23;99042.97;;;31.92;33.63
69796;BME280;57073;45.650;9.612;2022-07-15T05:59:24;99039.09;;;31.97;33.95
69796;BME280;57073;45.650;9.612;2022-07-15T06:01:24;99041.75;;;32.09;33.18
69796;BME280;57073;45.650;9.612;2022-07-15T06:03:24;99038.66;;;32.14;33.00
69796;BME280;57073;45.650;9.612;2022-07-15T06:05:25;99038.34;;;32.00;32.85
69796;BME280;57073;45.650;9.612;2022-07-15T06:07:25;99030.00;;;31.77;33.93
69796;BME280;57073;45.650;9.612;2022-07-15T06:09:26;99038.47;;;31.84;33.50
69796;BME280;57073;45.650;9.612;2022-07-15T06:11:27;99040.56;;;31.90;32.98
69796;BME280;57073;45.650;9.612;2022-07-15T06:13:28;99039.81;;;31.94;33.11
69796;BME280;57073;45.650;9.612;2022-07-15T06:15:29;99042.59;;;31.74;33.75
69796;BME280;57073;45.650;9.612;2022-07-15T06:17:29;99041.38;;;31.91;33.84
69796;BME280;57073;45.650;9.612;2022-07-15T06:19:30;99039.28;;;32.04;33.60
69796;BME280;57073;45.650;9.612;2022-07-15T06:21:31;99035.44;;;32.12;32.92
69796;BME280;57073;45.650;9.612;2022-07-15T06:23:31;99036.63;;;31.91;33.10
69796;BME280;57073;45.650;9.612;2022-07-15T06:25:31;99028.16;;;32.04;33.07
69796;BME280;57073;45.650;9.612;2022-07-15T06:27:32;99030.75;;;32.16;32.92
69796;BME280;57073;45.650;9.612;2022-07-15T06:29:32;99025.16;;;32.36;33.32
69796;BME280;57073;45.650;9.612;2022-07-15T06:31:32;99022.06;;;32.18;32.08
69796;BME280;57073;45.650;9.612;2022-07-15T06:33:33;99027.47;;;32.10;33.32
69796;BME280;57073;45.650;9.612;2022-07-15T06:35:33;99022.75;;;32.11;32.96
69796;BME280;57073;45.650;9.612;2022-07-15T06:37:34;99020.75;;;31.92;33.30
69796;BME280;57073;45.650;9.612;2022-07-15T06:39:34;99024.94;;;32.02;33.38
69796;BME280;57073;45.650;9.612;2022-07-15T06:41:34;99021.81;;;32.26;33.64
69796;BME280;57073;45.650;9.612;2022-07-15T06:43:35;99023.81;;;32.49;33.18
69796;BME280;57073;45.650;9.612;2022-07-15T06:45:35;99020.41;;;32.59;32.64
69796;BME280;57073;45.650;9.612;2022-07-15T06:47:38;99031.59;;;32.40;32.32
69796;BME280;57073;45.650;9.612;2022-07-15T06:49:39;99021.81;;;32.50;32.97
69796;BME280;57073;45.650;9.612;2022-07-15T06:51:40;99029.19;;;32.61;32.54
69796;BME280;57073;45.650;9.612;2022-07-15T06:53:40;99032.78;;;32.62;33.62
69796;BME280;57073;45.650;9.612;2022-07-15T06:55:41;99024.56;;;32.69;32.66
69796;BME280;57073;45.650;9.612;2022-07-15T06:57:41;99030.56;;;32.98;32.49
69796;BME280;57073;45.650;9.612;2022-07-15T06:59:43;99030.09;;;33.19;32.43
69796;BME280;57073;45.650;9.612;2022-07-15T07:01:43;99024.19;;;33.24;32.05
69796;BME280;57073;45.650;9.612;2022-07-15T07:03:44;99024.72;;;33.07;32.54
69796;BME280;57073;45.650;9.612;2022-07-15T07:05:44;99021.91;;;32.76;32.43
69796;BME280;57073;45.650;9.612;2022-07-15T07:07:44;99028.81;;;33.13;32.61
69796;BME280;57073;45.650;9.612;2022-07-15T07:09:45;99027.91;;;33.35;32.11
69796;BME280;57073;45.650;9.612;2022-07-15T07:11:45;99026.47;;;33.45;31.70
69796;BME280;57073;45.650;9.612;2022-07-15T07:13:47;99025.56;;;33.37;31.72
69796;BME280;57073;45.650;9.612;2022-07-15T07:15:47;99029.38;;;33.56;32.96
69796;BME280;57073;45.650;9.612;2022-07-15T07:17:48;99028.28;;;33.64;31.35
69796;BME280;57073;45.650;9.612;2022-07-15T07:19:48;99030.94;;;33.84;31.15
69796;BME280;57073;45.650;9.612;2022-07-15T07:21:49;99032.91;;;33.83;31.67
69796;BME280;57073;45.650;9.612;2022-07-15T07:23:49;99026.63;;;33.90;30.68
69796;BME280;57073;45.650;9.612;2022-07-15T07:25:49;99031.88;;;33.98;31.35
69796;BME280;57073;45.650;9.612;2022-07-15T07:27:50;99023.06;;;33.93;31.28
69796;BME280;57073;45.650;9.612;2022-07-15T07:29:50;99022.94;;;34.16;30.26
69796;BME280;57073;45.650;9.612;2022-07-15T07:31:51;99015.50;;;34.27;31.11
69796;BME280;57073;45.650;9.612;2022-07-15T07:33:54;99024.47;;;34.13;31.08
69796;BME280;57073;45.650;9.612;2022-07-15T07:35:55;99026.47;;;34.13;30.11
69796;BME280;57073;45.650;9.612;2022-07-15T07:37:55;99021.34;;;33.81;30.19
69796;BME280;57073;45.650;9.612;2022-07-15T07:39:56;99022.59;;;33.53;30.78
69796;BME280;57073;45.650;9.612;2022-07-15T07:41:56;99010.34;;;33.58;31.04
69796;BME280;57073;45.650;9.612;2022-07-15T07:43:57;99015.63;;;33.67;30.45
69796;BME280;57073;45.650;9.612;2022-07-15T07:45:58;99018.06;;;33.72;30.26
69796;BME280;57073;45.650;9.612;2022-07-15T07:47:58;99017.88;;;33.91;30.99
69796;BME280;57073;45.650;9.612;2022-07-15T07:49:59;99015.97;;;33.99;29.97
69796;BME280;57073;45.650;9.612;2022-07-15T07:51:59;99014.47;;;34.05;30.25
69796;BME280;57073;45.650;9.612;2022-07-15T07:53:59;99006.44;;;34.00;30.50
69796;BME280;57073;45.650;9.612;2022-07-15T07:56:00;99007.66;;;33.65;29.96
69796;BME280;57073;45.650;9.612;2022-07-15T07:58:00;99014.13;;;33.73;30.54
69796;BME280;57073;45.650;9.612;2022-07-15T08:00:02;99014.22;;;33.84;31.23
69796;BME280;57073;45.650;9.612;2022-07-15T08:02:03;99001.03;;;34.14;30.73
69796;BME280;57073;45.650;9.612;2022-07-15T08:04:04;98997.56;;;34.25;31.53
69796;BME280;57073;45.650;9.612;2022-07-15T08:06:05;99002.19;;;34.13;31.66
69796;BME280;57073;45.650;9.612;2022-07-15T08:08:12;99000.94;;;34.48;31.49
69796;BME280;57073;45.650;9.612;2022-07-15T08:10:13;99002.19;;;34.54;31.49
69796;BME280;57073;45.650;9.612;2022-07-15T08:12:14;99006.25;;;34.68;31.30
69796;BME280;57073;45.650;9.612;2022-07-15T08:14:16;99003.59;;;34.79;32.01
69796;BME280;57073;45.650;9.612;2022-07-15T08:16:18;98994.22;;;34.53;30.55
69796;BME280;57073;45.650;9.612;2022-07-15T08:18:20;98996.31;;;34.67;30.93
69796;BME280;57073;45.650;9.612;2022-07-15T08:20:20;98996.31;;;34.67;31.18
69796;BME280;57073;45.650;9.612;2022-07-15T08:22:21;98996.84;;;34.80;31.68
69796;BME280;57073;45.650;9.612;2022-07-15T08:24:21;98986.63;;;35.05;31.35
69796;BME280;57073;45.650;9.612;2022-07-15T08:26:22;98985.88;;;35.12;30.61
69796;BME280;57073;45.650;9.612;2022-07-15T08:28:24;98993.97;;;35.35;31.36
69796;BME280;57073;45.650;9.612;2022-07-15T08:30:28;98988.81;;;35.44;30.79
69796;BME280;57073;45.650;9.612;2022-07-15T08:32:29;98987.66;;;35.45;30.52
69796;BME280;57073;45.650;9.612;2022-07-15T08:34:30;98988.78;;;35.26;29.70
69796;BME280;57073;45.650;9.612;2022-07-15T08:36:30;98977.22;;;35.31;30.50
69796;BME280;57073;45.650;9.612;2022-07-15T08:38:31;98979.66;;;35.44;30.48
69796;BME280;57073;45.650;9.612;2022-07-15T08:40:31;98973.34;;;35.54;30.17
69796;BME280;57073;45.650;9.612;2022-07-15T08:42:32;98985.31;;;35.65;29.80
69796;BME280;57073;45.650;9.612;2022-07-15T08:44:32;98978.59;;;35.70;29.53
69796;BME280;57073;45.650;9.612;2022-07-15T08:46:35;98985.41;;;35.87;29.86
69796;BME280;57073;45.650;9.612;2022-07-15T08:48:37;98990.22;;;35.97;29.82
69796;BME280;57073;45.650;9.612;2022-07-15T08:50:37;98982.94;;;35.67;28.75
69796;BME280;57073;45.650;9.612;2022-07-15T08:52:38;98987.84;;;35.99;29.29
69796;BME280;57073;45.650;9.612;2022-07-15T08:54:39;98973.50;;;36.12;29.79
69796;BME280;57073;45.650;9.612;2022-07-15T08:56:40;98976.72;;;36.21;29.56
69796;BME280;57073;45.650;9.612;2022-07-15T08:58:46;98970.31;;;36.27;29.39
69796;BME280;57073;45.650;9.612;2022-07-15T09:00:47;98972.69;;;36.18;29.24
69796;BME280;57073;45.650;9.612;2022-07-15T09:02:47;98974.28;;;36.08;29.21
69796;BME280;57073;45.650;9.612;2022-07-15T09:07:22;98973.53;;;36.19;29.20
69796;BME280;57073;45.650;9.612;2022-07-15T09:11:28;98967.09;;;36.11;29.11
69796;BME280;57073;45.650;9.612;2022-07-15T09:13:32;98967.06;;;36.07;28.46
69796;BME280;57073;45.650;9.612;2022-07-15T09:15:36;98971.88;;;36.18;28.87
69796;BME280;57073;45.650;9.612;2022-07-15T09:17:37;98965.53;;;36.24;28.80
69796;BME280;57073;45.650;9.612;2022-07-15T09:20:09;98970.72;;;36.19;28.77
69796;BME280;57073;45.650;9.612;2022-07-15T09:22:10;98956.75;;;36.19;28.16
69796;BME280;57073;45.650;9.612;2022-07-15T09:24:17;98963.53;;;36.25;28.83
69796;BME280;57073;45.650;9.612;2022-07-15T09:28:37;98965.13;;;36.33;29.12
69796;BME280;57073;45.650;9.612;2022-07-15T09:30:43;98967.13;;;36.40;29.17
69796;BME280;57073;45.650;9.612;2022-07-15T09:33:05;63708.63;;;-147.61;100.00
69796;BME280;57073;45.650;9.612;2022-07-15T09:35:27;63708.63;;;-147.61;100.00
69796;BME280;57073;45.650;9.612;2022-07-15T09:37:57;63708.63;;;-147.61;100.00
69796;BME280;57073;45.650;9.612;2022-07-15T09:39:58;63708.63;;;-147.61;100.00
69796;BME280;57073;45.650;9.612;2022-07-15T09:42:05;63708.63;;;-147.61;100.00
69796;BME280;57073;45.650;9.612;2022-07-15T09:44:10;63708.63;;;-147.61;100.00
69796;BME280;57073;45.650;9.612;2022-07-15T09:46:11;63708.63;;;-147.61;100.00
69796;BME280;57073;45.650;9.612;2022-07-15T09:48:12;63708.63;;;-147.61;100.00
69796;BME280;57073;45.650;9.612;2022-07-15T09:50:13;63708.63;;;-147.61;100.00
69796;BME280;57073;45.650;9.612;2022-07-15T09:52:14;63708.63;;;-147.61;100.00
69796;BME280;57073;45.650;9.612;2022-07-15T09:54:15;63708.63;;;-147.61;100.00
69796;BME280;57073;45.650;9.612;2022-07-15T09:56:19;63708.63;;;-147.61;100.00
69796;BME280;57073;45.650;9.612;2022-07-15T09:58:23;63708.63;;;-147.61;100.00
69796;BME280;57073;45.650;9.612;2022-07-15T10:00:25;63708.63;;;-147.61;100.00
69796;BME280;57073;45.650;9.612;2022-07-15T10:02:25;63708.63;;;-147.61;100.00
69796;BME280;57073;45.650;9.612;2022-07-15T10:04:28;63708.63;;;-147.61;100.00
69796;BME280;57073;45.650;9.612;2022-07-15T10:06:31;63708.63;;;-147.61;100.00
69796;BME280;57073;45.650;9.612;2022-07-15T10:08:33;63708.63;;;-147.61;100.00
69796;BME280;57073;45.650;9.612;2022-07-15T10:10:34;63708.63;;;-147.61;100.00
69796;BME280;57073;45.650;9.612;2022-07-15T10:20:17;63708.63;;;-147.61;100.00
69796;BME280;57073;45.650;9.612;2022-07-15T10:28:58;63708.63;;;-147.61;100.00
69796;BME280;57073;45.650;9.612;2022-07-15T10:33:23;63708.63;;;-147.61;100.00
69796;BME280;57073;45.650;9.612;2022-07-15T10:35:53;63708.63;;;-147.61;100.00
69796;BME280;57073;45.650;9.612;2022-07-15T10:41:02;63708.63;;;-147.61;100.00
69796;BME280;57073;45.650;9.612;2022-07-15T10:43:03;63708.63;;;-147.61;100.00
69796;BME280;57073;45.650;9.612;2022-07-15T10:45:05;63708.63;;;-147.61;100.00
69796;BME280;57073;45.650;9.612;2022-07-15T10:53:46;63708.63;;;-147.61;100.00
69796;BME280;57073;45.650;9.612;2022-07-15T10:55:47;63708.63;;;-147.61;100.00
69796;BME280;57073;45.650;9.612;2022-07-15T10:59:56;63708.63;;;-147.61;100.00
69796;BME280;57073;45.650;9.612;2022-07-15T11:04:22;63708.63;;;-147.61;100.00
69796;BME280;57073;45.650;9.612;2022-07-15T11:06:23;63708.63;;;-147.61;100.00
69796;BME280;57073;45.650;9.612;2022-07-15T11:10:36;63708.63;;;-147.61;100.00
69796;BME280;57073;45.650;9.612;2022-07-15T11:14:52;63708.63;;;-147.61;100.00
69796;BME280;57073;45.650;9.612;2022-07-15T11:16:56;63708.63;;;-147.61;100.00
69796;BME280;57073;45.650;9.612;2022-07-15T11:18:57;63708.63;;;-147.61;100.00
69796;BME280;57073;45.650;9.612;2022-07-15T11:20:57;63708.63;;;-147.61;100.00
69796;BME280;57073;45.650;9.612;2022-07-15T11:23:00;63708.63;;;-147.61;100.00